Terminal Aerodrome Forecast
Issued by NWS Twin Cities, MN

Home | Current Version | Previous Version | Graphics & Text | Print | Product List | Glossary On
Versions: 1 2 3 4 5 6 7 8 9 10 11 12 13 14 15 16 17 18 19 20 21 22 23 24 25 26 27 28 29 30
000
FTUS43 KMPX 311900 AAA
TAFMSP
TAF AMD
KMSP 311912Z 3119/0124 16015G24KT P6SM SCT035 SCT110
     FM312000 18014G22KT P6SM VCSH SCT040 BKN080
      TEMPO 0102/0104 1SM TSRA BKN020CB OVC050
     FM010400 19008KT P6SM VCSH SCT020 BKN080
     FM010600 24006KT 6SM -SHRA BR BKN035
     FM011100 30008KT 5SM BR SCT015
     FM011600 30010KT P6SM BKN025=

USA.gov is the U.S. government's official web portal to all federal, state and local government web resources and services.